createdAt,value
2023-05-03T00:00:37.636Z,2.6
2023-05-03T00:01:44.346Z,2.6
2023-05-03T00:02:45.078Z,2.6
2023-05-03T00:03:45.293Z,2.6
2023-05-03T00:04:45.846Z,2.6
2023-05-03T00:05:46.416Z,2.6
2023-05-03T00:06:47.107Z,2.6
2023-05-03T00:07:47.477Z,2.6
2023-05-03T00:08:48.106Z,2.6
2023-05-03T00:09:48.652Z,2.6
2023-05-03T00:10:49.163Z,2.6
2023-05-03T00:11:49.707Z,2.6
2023-05-03T00:12:50.243Z,2.1
2023-05-03T00:13:50.752Z,2.1
2023-05-03T00:14:51.264Z,2.1
2023-05-03T00:15:51.811Z,2.1
2023-05-03T00:16:52.477Z,2.1
2023-05-03T00:17:53.019Z,2.1
2023-05-03T00:18:53.723Z,2.1
2023-05-03T00:19:54.237Z,2.1
2023-05-03T00:20:54.836Z,2.1
2023-05-03T00:21:55.596Z,2.1
2023-05-03T00:22:56.241Z,2.1
2023-05-03T00:23:56.751Z,2.1
2023-05-03T00:24:57.279Z,2.1
2023-05-03T00:25:57.823Z,2.1
2023-05-03T00:27:04.519Z,2.1
2023-05-03T00:33:55.559Z,2.1
2023-05-03T00:34:56.230Z,2.1
2023-05-03T00:36:02.616Z,2.1
2023-05-03T00:37:03.143Z,2.1
2023-05-03T00:38:03.687Z,2.1
2023-05-03T00:39:04.288Z,2.1
2023-05-03T00:40:05.214Z,2.1
2023-05-03T00:41:05.531Z,2.1
2023-05-03T00:42:06.067Z,2.1
2023-05-03T00:43:06.785Z,2.1
2023-05-03T00:44:07.487Z,2.1
2023-05-03T00:45:08.011Z,2.1
2023-05-03T00:46:16.514Z,2.1
2023-05-03T00:47:09.174Z,2.1
2023-05-03T00:48:09.641Z,2.1
2023-05-03T00:49:10.151Z,2.1
2023-05-03T00:50:10.703Z,2.1
2023-05-03T00:51:11.215Z,2.1
2023-05-03T00:52:11.749Z,2.1
2023-05-03T00:53:12.242Z,1.5
2023-05-03T00:54:12.793Z,1.5
2023-05-03T00:55:13.299Z,1.5
2023-05-03T00:56:13.826Z,1.5
2023-05-03T00:57:14.351Z,1.5
2023-05-03T00:58:14.920Z,1.5
2023-05-03T00:59:15.452Z,1.5
2023-05-03T01:00:15.988Z,1.5
2023-05-03T01:01:16.605Z,1.5
2023-05-03T01:02:16.998Z,1.5
2023-05-03T01:03:17.612Z,1.5
2023-05-03T01:04:24.326Z,1.5
2023-05-03T01:05:24.906Z,1.5
2023-05-03T01:06:25.497Z,1.5
2023-05-03T01:07:25.947Z,1.5
2023-05-03T01:08:26.477Z,1.5
2023-05-03T01:09:27.236Z,1.5
2023-05-03T01:10:27.932Z,1.5
2023-05-03T01:11:28.678Z,1.5
2023-05-03T01:12:29.297Z,2.1
2023-05-03T01:13:29.850Z,2.1
2023-05-03T01:14:30.444Z,2.1
2023-05-03T01:15:30.976Z,2.1
2023-05-03T01:16:31.550Z,2.1
2023-05-03T01:17:32.037Z,2.1
2023-05-03T01:18:32.552Z,2.1
2023-05-03T01:19:33.072Z,2.1
2023-05-03T01:20:33.635Z,2.1
2023-05-03T01:21:34.125Z,2.1
2023-05-03T01:22:34.811Z,2.1
2023-05-03T01:23:35.352Z,2.1
2023-05-03T01:24:35.911Z,2.1
2023-05-03T01:25:36.451Z,2.1
2023-05-03T01:26:36.976Z,2.1
2023-05-03T01:27:37.696Z,2.1
2023-05-03T01:28:38.413Z,2.1
2023-05-03T01:29:44.779Z,2.1
2023-05-03T01:30:45.300Z,2.1
2023-05-03T01:31:45.949Z,2.1
2023-05-03T01:32:46.503Z,2.1
2023-05-03T01:33:47.152Z,2.1
2023-05-03T01:34:47.885Z,2.1
2023-05-03T01:35:48.644Z,2.1
2023-05-03T01:36:49.326Z,2.1
2023-05-03T01:37:49.941Z,2.1
2023-05-03T01:38:50.556Z,2.1
2023-05-03T01:39:51.286Z,2.1
2023-05-03T01:40:52.000Z,2.1
2023-05-03T01:41:52.538Z,2.1
2023-05-03T01:42:53.057Z,2.1
2023-05-03T01:43:53.617Z,2.1
2023-05-03T01:44:54.191Z,2.1
2023-05-03T01:45:54.720Z,2.1
2023-05-03T01:46:55.248Z,2.1
2023-05-03T01:47:55.978Z,2.1
2023-05-03T01:48:56.469Z,2.1
2023-05-03T01:49:57.020Z,2.1
2023-05-03T01:50:57.555Z,2.1
2023-05-03T01:52:04.392Z,2.1
2023-05-03T01:53:05.127Z,2.1
2023-05-03T01:54:05.725Z,2.1
2023-05-03T01:55:06.340Z,2.1
2023-05-03T01:56:06.951Z,2.1
2023-05-03T01:57:07.721Z,2.1
2023-05-03T01:58:08.414Z,2.1
2023-05-03T01:59:08.942Z,2.1
2023-05-03T02:00:09.504Z,2.1
2023-05-03T02:01:10.076Z,2.1
2023-05-03T02:02:10.578Z,2.1
2023-05-03T02:03:11.381Z,2.1
2023-05-03T02:04:11.863Z,2.1
2023-05-03T02:05:12.365Z,2.1
2023-05-03T02:06:13.053Z,2.1
2023-05-03T02:08:38.581Z,2.1
2023-05-03T02:09:39.291Z,2.1
2023-05-03T02:10:39.828Z,2.1
2023-05-03T02:11:40.366Z,2.1
2023-05-03T02:12:40.894Z,0.5
2023-05-03T02:13:47.492Z,0.5
2023-05-03T02:14:48.038Z,0.5
2023-05-03T02:15:48.524Z,0.5
2023-05-03T02:16:49.070Z,0.5
2023-05-03T02:17:49.824Z,0.5
2023-05-03T02:18:50.222Z,0.5
2023-05-03T02:19:50.961Z,0.5
2023-05-03T02:20:51.489Z,0.5
2023-05-03T02:21:52.108Z,0.5
2023-05-03T02:22:52.627Z,0.5
2023-05-03T02:23:53.153Z,0.5
2023-05-03T02:24:53.643Z,0.5
2023-05-03T02:25:54.142Z,0.5
2023-05-03T02:26:54.661Z,0.5
2023-05-03T02:27:55.189Z,0.5
2023-05-03T02:28:55.709Z,0.5
2023-05-03T02:29:56.394Z,0.5
2023-05-03T02:30:57.133Z,0.5
2023-05-03T02:31:57.784Z,0.5
2023-05-03T02:32:58.335Z,0.5
2023-05-03T02:33:59.034Z,0.5
2023-05-03T02:34:59.576Z,0.5
2023-05-03T02:36:00.193Z,0.5
2023-05-03T02:37:00.693Z,0.5
2023-05-03T02:38:01.394Z,0.5
2023-05-03T02:39:07.825Z,0.5
2023-05-03T02:40:08.352Z,0.5
2023-05-03T02:41:08.892Z,0.5
2023-05-03T02:42:09.505Z,0.5
2023-05-03T02:43:09.934Z,0.5
2023-05-03T02:44:10.462Z,0.5
2023-05-03T02:45:10.985Z,0.5
2023-05-03T02:46:11.559Z,0.5
2023-05-03T02:47:12.203Z,0.5
2023-05-03T02:48:12.932Z,0.5
2023-05-03T02:49:13.580Z,0.5
2023-05-03T02:50:14.113Z,0.5
2023-05-03T02:51:14.711Z,0.5
2023-05-03T02:52:15.327Z,0.5
2023-05-03T02:53:16.035Z,0.5
2023-05-03T02:54:16.566Z,0.5
2023-05-03T02:55:17.192Z,0.5
2023-05-03T02:56:17.906Z,0.5
2023-05-03T02:57:18.437Z,0.5
2023-05-03T02:58:19.144Z,0.5
2023-05-03T02:59:19.663Z,0.5
2023-05-03T03:00:20.207Z,0.5
2023-05-03T03:01:20.729Z,0.5
2023-05-03T03:02:21.332Z,0.5
2023-05-03T03:03:21.871Z,0.5
2023-05-03T03:04:28.404Z,0.5
2023-05-03T03:05:29.034Z,0.5
2023-05-03T03:06:29.912Z,0.5
2023-05-03T03:07:30.497Z,0.5
2023-05-03T03:08:31.094Z,0.5
2023-05-03T03:09:31.583Z,0.5
2023-05-03T03:10:32.255Z,0.5
2023-05-03T03:11:32.856Z,0.5
2023-05-03T03:12:33.384Z,0.5
2023-05-03T03:13:33.904Z,0.5
2023-05-03T03:14:34.612Z,0.5
2023-05-03T03:15:35.360Z,0.5
2023-05-03T03:16:36.094Z,0.5
2023-05-03T03:17:36.703Z,0.5
2023-05-03T03:18:37.412Z,0.5
2023-05-03T03:19:37.943Z,0.5
2023-05-03T03:20:38.578Z,0.5
2023-05-03T03:21:39.162Z,0.5
2023-05-03T03:22:39.970Z,0.5
2023-05-03T03:23:46.620Z,0.5
2023-05-03T03:24:47.166Z,0.5
2023-05-03T03:25:47.695Z,0.5
2023-05-03T03:26:48.193Z,0.5
2023-05-03T03:27:48.720Z,0.5
2023-05-03T03:28:49.245Z,0.5
2023-05-03T03:29:49.765Z,0.5
2023-05-03T03:30:50.288Z,0.5
2023-05-03T03:31:50.833Z,0.5
2023-05-03T03:32:51.426Z,0.5
2023-05-03T03:33:51.890Z,0.5
2023-05-03T03:34:52.417Z,0.5
2023-05-03T03:35:52.955Z,0.5
2023-05-03T03:36:53.451Z,0.5
2023-05-03T03:37:53.997Z,0.5
2023-05-03T03:38:54.460Z,0.5
2023-05-03T03:39:55.159Z,0.5
2023-05-03T03:40:55.688Z,0.5
2023-05-03T03:41:56.210Z,0.5
2023-05-03T03:42:56.726Z,0.5
2023-05-03T03:43:57.269Z,0.5
2023-05-03T03:44:57.793Z,0.5
2023-05-03T03:45:58.490Z,0.5
2023-05-03T03:46:59.114Z,0.5
2023-05-03T03:47:59.624Z,0.5
2023-05-03T03:49:00.183Z,0.5
2023-05-03T03:50:01.218Z,0.5
2023-05-03T03:51:01.407Z,0.5
2023-05-03T03:52:07.867Z,0.5
2023-05-03T03:53:08.420Z,1
2023-05-03T03:54:08.942Z,1
2023-05-03T03:55:09.471Z,1
2023-05-03T03:56:10.027Z,1
2023-05-03T03:57:10.577Z,1
2023-05-03T03:58:11.104Z,1
2023-05-03T03:59:11.770Z,1
2023-05-03T04:00:12.338Z,1
2023-05-03T04:01:12.871Z,1
2023-05-03T04:02:13.640Z,1
2023-05-03T04:03:14.325Z,1
2023-05-03T04:04:14.864Z,1
2023-05-03T04:05:15.342Z,1
2023-05-03T04:06:15.929Z,1
2023-05-03T04:07:16.479Z,1
2023-05-03T04:08:17.024Z,1
2023-05-03T04:09:17.571Z,1
2023-05-03T04:10:18.233Z,1
2023-05-03T04:11:18.840Z,1
2023-05-03T04:12:19.366Z,1
2023-05-03T04:13:19.870Z,0.5
2023-05-03T04:14:20.434Z,0.5
2023-05-03T04:15:21.004Z,0.5
2023-05-03T04:16:21.674Z,0.5
2023-05-03T04:17:28.127Z,0.5
2023-05-03T04:18:28.671Z,0.5
2023-05-03T04:19:29.429Z,0.5
2023-05-03T04:20:29.961Z,0.5
2023-05-03T04:21:30.459Z,0.5
2023-05-03T04:22:30.995Z,0.5
2023-05-03T04:23:31.569Z,0.5
2023-05-03T04:24:32.233Z,0.5
2023-05-03T04:25:32.775Z,0.5
2023-05-03T04:26:33.378Z,0.5
2023-05-03T04:27:34.092Z,0.5
2023-05-03T04:28:34.679Z,0.5
2023-05-03T04:29:35.187Z,0.5
2023-05-03T04:30:35.966Z,0.5
2023-05-03T04:31:36.404Z,0.5
2023-05-03T04:32:37.006Z,0.5
2023-05-03T04:33:37.503Z,0.5
2023-05-03T04:34:38.023Z,0.5
2023-05-03T04:35:38.760Z,0.5
2023-05-03T04:36:39.493Z,0.5
2023-05-03T04:37:40.008Z,0.5
2023-05-03T04:38:40.750Z,0.5
2023-05-03T04:39:47.358Z,0.5
2023-05-03T04:40:47.977Z,0.5
2023-05-03T04:41:48.635Z,0.5
2023-05-03T04:42:49.354Z,0.5
2023-05-03T04:43:49.857Z,0.5
2023-05-03T04:44:50.610Z,0.5
2023-05-03T04:45:51.339Z,0.5
2023-05-03T04:46:51.925Z,0.5
2023-05-03T04:47:52.416Z,0.5
2023-05-03T04:48:52.888Z,0.5
2023-05-03T04:49:53.608Z,0.5
2023-05-03T04:50:54.158Z,0.5
2023-05-03T04:51:56.389Z,0.5
2023-05-03T04:52:55.462Z,1.3
2023-05-03T04:53:56.128Z,1.3
2023-05-03T04:54:56.644Z,1.3
2023-05-03T04:55:57.306Z,1.3
2023-05-03T04:56:57.851Z,1.3
2023-05-03T04:57:58.390Z,1.3
2023-05-03T04:58:58.916Z,1.3
2023-05-03T04:59:59.619Z,1.3
2023-05-03T05:01:00.165Z,1.3
2023-05-03T05:02:06.795Z,1.3
2023-05-03T05:03:07.407Z,1.3
2023-05-03T05:04:08.319Z,1.3
2023-05-03T05:05:08.754Z,1.3
2023-05-03T05:06:09.329Z,1.3
2023-05-03T05:07:09.786Z,1.3
2023-05-03T05:08:10.406Z,1.3
2023-05-03T05:09:11.044Z,1.3
2023-05-03T05:10:11.741Z,1.3
2023-05-03T05:11:12.369Z,1.3
2023-05-03T05:12:12.995Z,1.3
2023-05-03T05:13:13.532Z,1.5
2023-05-03T05:14:14.216Z,1.5
2023-05-03T05:15:14.877Z,1.5
2023-05-03T05:16:15.511Z,1.5
2023-05-03T05:17:16.049Z,1.5
2023-05-03T05:18:16.709Z,1.5
2023-05-03T05:19:17.175Z,1.5
2023-05-03T05:20:18.829Z,1.5
2023-05-03T05:21:18.214Z,1.5
2023-05-03T05:22:18.805Z,1.5
2023-05-03T05:23:19.525Z,1.5
2023-05-03T05:24:25.950Z,1.5
2023-05-03T05:25:26.652Z,1.5
2023-05-03T05:26:27.221Z,1.5
2023-05-03T05:27:27.859Z,1.5
2023-05-03T05:28:28.401Z,1.5
2023-05-03T05:29:29.110Z,1.5
2023-05-03T05:30:29.655Z,1.5
2023-05-03T05:31:30.377Z,1.5
2023-05-03T05:32:31.063Z,1.5
2023-05-03T05:33:31.862Z,1.5
2023-05-03T05:34:39.302Z,1.5
2023-05-03T05:35:32.860Z,1.5
2023-05-03T05:36:33.533Z,1.5
2023-05-03T05:37:34.256Z,1.5
2023-05-03T05:38:34.783Z,1.5
2023-05-03T05:39:35.433Z,1.5
2023-05-03T05:40:36.123Z,1.5
2023-05-03T05:41:36.656Z,1.5
2023-05-03T05:42:37.366Z,1.5
2023-05-03T05:43:44.020Z,1.5
2023-05-03T05:44:44.771Z,1.5
2023-05-03T05:45:45.465Z,1.5
2023-05-03T05:46:46.277Z,1.5
2023-05-03T05:47:47.008Z,1.5
2023-05-03T05:48:47.504Z,1.5
2023-05-03T05:49:48.162Z,1.5
2023-05-03T05:50:48.925Z,1.5
2023-05-03T05:51:49.603Z,1.5
2023-05-03T05:52:50.258Z,0.5
2023-05-03T05:53:50.888Z,0.5
2023-05-03T05:54:51.630Z,0.5
2023-05-03T05:55:52.206Z,0.5
2023-05-03T05:56:52.926Z,0.5
2023-05-03T05:57:53.459Z,0.5
2023-05-03T05:58:54.061Z,0.5
2023-05-03T05:59:54.618Z,0.5
2023-05-03T06:00:55.132Z,0.5
2023-05-03T06:01:55.668Z,0.5
2023-05-03T06:03:02.547Z,0.5
2023-05-03T06:04:03.123Z,0.5
2023-05-03T06:05:04.925Z,0.5
2023-05-03T06:06:04.368Z,0.5
2023-05-03T06:07:05.016Z,0.5
2023-05-03T06:08:05.660Z,0.5
2023-05-03T06:09:13.189Z,0.5
2023-05-03T06:10:07.245Z,0.5
2023-05-03T06:11:07.410Z,0.5
2023-05-03T06:12:07.965Z,0.5
2023-05-03T06:13:08.480Z,0.5
2023-05-03T06:14:09.025Z,0.5
2023-05-03T06:15:09.564Z,0.5
2023-05-03T06:16:10.163Z,0.5
2023-05-03T06:17:10.782Z,0.5
2023-05-03T06:18:11.488Z,0.5
2023-05-03T06:19:11.902Z,0.5
2023-05-03T06:20:12.534Z,0.5
2023-05-03T06:21:13.055Z,0.5
2023-05-03T06:22:13.602Z,0.5
2023-05-03T06:23:14.128Z,0.5
2023-05-03T06:24:14.690Z,0.5
2023-05-03T06:25:17.644Z,0.5
2023-05-03T06:26:16.087Z,0.5
2023-05-03T06:27:16.661Z,0.5
2023-05-03T06:28:23.154Z,0.5
2023-05-03T06:29:23.765Z,0.5
2023-05-03T06:30:24.511Z,0.5
2023-05-03T06:31:25.126Z,0.5
2023-05-03T06:32:25.754Z,0.5
2023-05-03T06:33:26.317Z,0.5
2023-05-03T06:34:26.966Z,0.5
2023-05-03T06:35:27.497Z,0.5
2023-05-03T06:36:28.040Z,0.5
2023-05-03T06:37:28.591Z,0.5
2023-05-03T06:38:29.259Z,0.5
2023-05-03T06:39:29.975Z,0.5
2023-05-03T06:40:30.759Z,0.5
2023-05-03T06:41:31.452Z,0.5
2023-05-03T06:42:32.048Z,0.5
2023-05-03T06:43:32.672Z,0.5
2023-05-03T06:44:33.292Z,0.5
2023-05-03T06:45:33.838Z,0.5
2023-05-03T06:46:34.432Z,0.5
2023-05-03T06:47:34.972Z,0.5
2023-05-03T06:48:35.694Z,0.5
2023-05-03T06:49:36.233Z,0.5
2023-05-03T06:50:42.829Z,0.5
2023-05-03T06:51:43.587Z,0.5
2023-05-03T06:52:44.309Z,0.5
2023-05-03T06:53:45.043Z,0.5
2023-05-03T06:54:45.608Z,0.5
2023-05-03T06:55:46.257Z,0.5
2023-05-03T06:56:46.696Z,0.5
2023-05-03T06:57:47.427Z,0.5
2023-05-03T06:58:47.988Z,0.5
2023-05-03T06:59:48.752Z,0.5
2023-05-03T07:00:49.476Z,0.5
2023-05-03T07:01:50.261Z,0.5
2023-05-03T07:02:50.986Z,0.5
2023-05-03T07:03:51.804Z,0.5
2023-05-03T07:04:52.139Z,0.5
2023-05-03T07:05:52.884Z,0.5
2023-05-03T07:06:56.624Z,0.5
2023-05-03T07:07:53.976Z,0.5
2023-05-03T07:08:54.559Z,0.5
2023-05-03T07:10:01.602Z,0.5
2023-05-03T07:11:01.833Z,0.5
2023-05-03T07:12:02.385Z,0.5
2023-05-03T07:13:03.092Z,2.6
2023-05-03T07:14:03.711Z,2.6
2023-05-03T07:15:04.257Z,2.6
2023-05-03T07:16:04.833Z,2.6
2023-05-03T07:17:05.338Z,2.6
2023-05-03T07:18:05.933Z,2.6
2023-05-03T07:19:06.484Z,2.6
2023-05-03T07:20:07.103Z,2.6
2023-05-03T07:21:09.388Z,2.6
2023-05-03T07:22:08.568Z,2.6
2023-05-03T07:23:09.120Z,2.6
2023-05-03T07:24:09.798Z,2.6
2023-05-03T07:25:10.347Z,2.6
2023-05-03T07:26:11.021Z,2.6
2023-05-03T07:27:11.534Z,2.6
2023-05-03T07:28:12.278Z,2.6
2023-05-03T07:29:12.811Z,2.6
2023-05-03T07:30:13.442Z,2.6
2023-05-03T07:31:14.061Z,2.6
2023-05-03T07:32:20.623Z,2.6
2023-05-03T07:33:21.522Z,2.6
2023-05-03T07:34:22.061Z,2.6
2023-05-03T07:35:22.587Z,2.6
2023-05-03T07:36:23.297Z,2.6
2023-05-03T07:37:23.997Z,2.6
2023-05-03T07:38:24.535Z,2.6
2023-05-03T07:39:25.265Z,2.6
2023-05-03T07:40:26.009Z,2.6
2023-05-03T07:41:26.619Z,2.6
2023-05-03T07:42:27.244Z,2.6
2023-05-03T07:43:27.953Z,2.6
2023-05-03T07:44:28.596Z,2.6
2023-05-03T07:45:29.331Z,2.6
2023-05-03T07:46:29.849Z,2.6
2023-05-03T07:47:30.505Z,2.6
2023-05-03T07:48:31.074Z,2.6
2023-05-03T07:49:31.595Z,2.6
2023-05-03T07:50:32.146Z,2.6
2023-05-03T07:51:38.755Z,2.6
2023-05-03T07:52:39.315Z,3.1
2023-05-03T07:53:40.024Z,3.1
2023-05-03T07:54:40.567Z,3.1
2023-05-03T07:55:41.260Z,3.1
2023-05-03T07:56:41.858Z,3.1
2023-05-03T07:57:42.400Z,3.1
2023-05-03T07:58:44.967Z,3.1
2023-05-03T07:59:44.034Z,3.1
2023-05-03T08:00:44.624Z,3.1
2023-05-03T08:01:45.367Z,3.1
2023-05-03T08:02:46.101Z,3.1
2023-05-03T08:03:46.735Z,3.1
2023-05-03T08:04:47.320Z,3.1
2023-05-03T08:05:47.977Z,3.1
2023-05-03T08:06:48.498Z,3.1
2023-05-03T08:07:49.130Z,3.1
2023-05-03T08:08:49.691Z,3.1
2023-05-03T08:09:50.451Z,3.1
2023-05-03T08:10:56.944Z,3.1
2023-05-03T08:11:57.746Z,3.1
2023-05-03T08:12:58.232Z,3.1
2023-05-03T08:13:58.748Z,3.1
2023-05-03T08:14:59.305Z,3.1
2023-05-03T08:16:00.005Z,3.1
2023-05-03T08:17:00.489Z,3.1
2023-05-03T08:18:01.090Z,3.1
2023-05-03T08:19:01.604Z,3.1
2023-05-03T08:20:02.727Z,3.1
2023-05-03T08:21:02.851Z,3.1
2023-05-03T08:22:03.440Z,3.1
2023-05-03T08:23:03.978Z,3.1
2023-05-03T08:24:04.681Z,3.1
2023-05-03T08:25:05.384Z,3.1
2023-05-03T08:26:05.908Z,3.1
2023-05-03T08:27:06.638Z,3.1
2023-05-03T08:28:07.157Z,3.1
2023-05-03T08:29:07.793Z,3.1
2023-05-03T08:30:08.319Z,3.1
2023-05-03T08:31:09.311Z,3.1
2023-05-03T08:32:09.779Z,3.1
2023-05-03T08:33:16.217Z,3.1
2023-05-03T08:34:16.705Z,3.1
2023-05-03T08:35:17.358Z,3.1
2023-05-03T08:36:17.932Z,3.1
2023-05-03T08:37:18.471Z,3.1
2023-05-03T08:38:19.209Z,3.1
2023-05-03T08:39:19.737Z,3.1
2023-05-03T08:40:20.315Z,3.1
2023-05-03T08:41:20.861Z,3.1
2023-05-03T08:42:23.348Z,3.1
2023-05-03T08:43:21.936Z,3.1
2023-05-03T08:44:22.454Z,3.1
2023-05-03T08:45:22.999Z,3.1
2023-05-03T08:46:23.580Z,3.1
2023-05-03T08:47:24.307Z,3.1
2023-05-03T08:48:25.032Z,3.1
2023-05-03T08:49:25.734Z,3.1
2023-05-03T08:50:26.451Z,3.1
2023-05-03T08:51:26.979Z,3.1
2023-05-03T08:52:27.589Z,3.1
2023-05-03T08:53:28.330Z,3.6
2023-05-03T08:54:28.869Z,3.6
2023-05-03T08:55:35.272Z,3.6
2023-05-03T08:56:35.865Z,3.6
2023-05-03T08:57:36.409Z,3.6
2023-05-03T08:58:36.944Z,3.6
2023-05-03T08:59:37.513Z,3.6
2023-05-03T09:00:38.188Z,3.6
2023-05-03T09:01:38.899Z,3.6
2023-05-03T09:02:39.642Z,3.6
2023-05-03T09:03:40.469Z,3.6
2023-05-03T09:04:40.895Z,3.6
2023-05-03T09:05:41.508Z,3.6
2023-05-03T09:06:42.020Z,3.6
2023-05-03T09:07:43.220Z,3.6
2023-05-03T09:08:43.892Z,3.6
2023-05-03T09:09:47.015Z,3.6
2023-05-03T09:10:45.165Z,3.6
2023-05-03T09:11:45.840Z,3.6
2023-05-03T09:12:46.620Z,3.6
2023-05-03T09:13:47.299Z,3.6
2023-05-03T09:14:53.675Z,3.6
2023-05-03T09:15:54.463Z,3.6
2023-05-03T09:16:54.900Z,3.6
2023-05-03T09:17:55.409Z,3.6
2023-05-03T09:18:55.931Z,3.6
2023-05-03T09:19:56.489Z,3.6
2023-05-03T09:20:59.048Z,3.6
2023-05-03T09:21:57.684Z,3.6
2023-05-03T09:22:58.414Z,3.6
2023-05-03T09:23:58.974Z,3.6
2023-05-03T09:24:59.680Z,3.6
2023-05-03T09:26:00.211Z,3.6
2023-05-03T09:27:00.733Z,3.6
2023-05-03T09:28:01.348Z,3.6
2023-05-03T09:29:01.973Z,3.6
2023-05-03T09:30:02.757Z,3.6
2023-05-03T09:31:03.176Z,3.6
2023-05-03T09:32:03.918Z,3.6
2023-05-03T09:33:04.705Z,3.6
2023-05-03T09:34:05.139Z,3.6
2023-05-03T09:35:05.890Z,3.6
2023-05-03T09:36:06.424Z,3.6
2023-05-03T09:37:12.971Z,3.6
2023-05-03T09:38:13.660Z,3.6
2023-05-03T09:39:14.298Z,3.6
2023-05-03T09:40:14.894Z,3.6
2023-05-03T09:41:15.544Z,3.6
2023-05-03T09:42:16.073Z,3.6
2023-05-03T09:43:17.522Z,3.6
2023-05-03T09:44:17.292Z,3.6
2023-05-03T09:45:17.925Z,3.6
2023-05-03T09:46:18.550Z,3.6
2023-05-03T09:47:19.016Z,3.6
2023-05-03T09:48:19.570Z,3.6
2023-05-03T09:49:20.297Z,3.6
2023-05-03T09:50:21.037Z,3.6
2023-05-03T09:51:21.766Z,3.6
2023-05-03T09:52:22.295Z,3.6
2023-05-03T09:53:22.820Z,4.1
2023-05-03T09:54:23.716Z,4.1
2023-05-03T09:55:24.136Z,4.1
2023-05-03T09:56:24.846Z,4.1
2023-05-03T09:57:25.467Z,4.1
2023-05-03T09:58:26.167Z,4.1
2023-05-03T09:59:32.761Z,4.1
2023-05-03T10:00:33.512Z,4.1
2023-05-03T10:01:34.183Z,4.1
2023-05-03T10:02:34.742Z,4.1
2023-05-03T10:03:35.272Z,4.1
2023-05-03T10:04:35.857Z,4.1
2023-05-03T10:05:36.412Z,4.1
2023-05-03T10:06:37.144Z,4.1
2023-05-03T10:07:37.695Z,4.1
2023-05-03T10:08:38.353Z,4.1
2023-05-03T10:09:38.972Z,4.1
2023-05-03T10:10:39.693Z,4.1
2023-05-03T10:11:40.233Z,4.1
2023-05-03T10:12:40.830Z,2.6
2023-05-03T10:13:41.480Z,2.6
2023-05-03T10:14:42.190Z,2.6
2023-05-03T10:15:42.947Z,2.6
2023-05-03T10:16:43.422Z,2.6
2023-05-03T10:17:48.154Z,2.6
2023-05-03T10:18:50.826Z,2.6
2023-05-03T10:19:51.345Z,2.6
2023-05-03T10:20:51.870Z,2.6
2023-05-03T10:21:52.466Z,2.6
2023-05-03T10:22:53.047Z,2.6
2023-05-03T10:23:53.604Z,2.6
2023-05-03T10:24:54.142Z,2.6
2023-05-03T10:25:54.850Z,2.6
2023-05-03T10:26:55.551Z,2.6
2023-05-03T10:27:56.316Z,2.6
2023-05-03T10:28:57.666Z,2.6
2023-05-03T10:29:57.744Z,2.6
2023-05-03T10:30:58.510Z,2.6
2023-05-03T10:31:58.991Z,2.6
2023-05-03T10:32:59.686Z,2.6
2023-05-03T10:34:00.050Z,2.6
2023-05-03T10:35:00.611Z,2.6
2023-05-03T10:36:01.204Z,2.6
2023-05-03T10:37:01.757Z,2.6
2023-05-03T10:38:02.395Z,2.6
2023-05-03T10:39:02.949Z,2.6
2023-05-03T10:40:03.486Z,2.6
2023-05-03T10:41:10.143Z,2.6
2023-05-03T10:42:10.675Z,2.6
2023-05-03T10:43:11.204Z,2.6
2023-05-03T10:44:11.804Z,2.6
2023-05-03T10:45:12.352Z,2.6
2023-05-03T10:46:12.911Z,2.6
2023-05-03T10:47:13.421Z,2.6
2023-05-03T10:48:13.935Z,2.6
2023-05-03T10:49:14.480Z,2.6
2023-05-03T10:50:15.170Z,2.6
2023-05-03T10:51:15.794Z,2.6
2023-05-03T10:52:16.349Z,2.6
2023-05-03T10:53:16.929Z,2.6
2023-05-03T10:54:17.540Z,2.6
2023-05-03T10:55:18.130Z,2.6
2023-05-03T10:56:18.628Z,2.6
2023-05-03T10:57:19.156Z,2.6
2023-05-03T10:58:19.842Z,2.6
2023-05-03T10:59:20.521Z,2.6
2023-05-03T11:00:21.072Z,2.6
2023-05-03T11:01:21.877Z,2.6
2023-05-03T11:02:22.385Z,2.6
2023-05-03T11:03:22.923Z,2.6
2023-05-03T11:04:23.703Z,2.6
2023-05-03T11:05:24.401Z,2.6
2023-05-03T11:06:30.768Z,2.6
2023-05-03T11:07:31.206Z,2.6
2023-05-03T11:08:31.748Z,2.6
2023-05-03T11:09:32.387Z,2.6
2023-05-03T11:10:32.938Z,2.6
2023-05-03T11:11:33.644Z,2.6
2023-05-03T11:12:34.385Z,2.6
2023-05-03T11:13:34.941Z,2.6
2023-05-03T11:14:35.645Z,2.6
2023-05-03T11:15:36.338Z,2.6
2023-05-03T11:16:37.015Z,2.6
2023-05-03T11:17:37.480Z,2.6
2023-05-03T11:18:38.037Z,2.6
2023-05-03T11:19:38.730Z,2.6
2023-05-03T11:20:39.266Z,2.6
2023-05-03T11:21:39.876Z,2.6
2023-05-03T11:22:40.568Z,2.6
2023-05-03T11:23:41.326Z,2.6
2023-05-03T11:24:41.883Z,2.6
2023-05-03T11:25:42.540Z,2.6
2023-05-03T11:26:43.080Z,2.6
2023-05-03T11:27:44.491Z,2.6
2023-05-03T11:28:50.267Z,2.6
2023-05-03T11:29:50.925Z,2.6
2023-05-03T11:30:51.365Z,2.6
2023-05-03T11:31:52.104Z,2.6
2023-05-03T11:32:52.961Z,2.6
2023-05-03T11:33:53.432Z,2.6
2023-05-03T11:34:53.961Z,2.6
2023-05-03T11:35:54.500Z,2.6
2023-05-03T11:36:55.221Z,2.6
2023-05-03T11:37:55.757Z,2.6
2023-05-03T11:38:56.301Z,2.6
2023-05-03T11:39:56.823Z,2.6
2023-05-03T11:40:57.600Z,2.6
2023-05-03T11:41:58.309Z,2.6
2023-05-03T11:42:59.090Z,2.6
2023-05-03T11:44:08.247Z,2.6
2023-05-03T11:45:00.325Z,2.6
2023-05-03T11:46:01.094Z,2.6
2023-05-03T11:47:01.971Z,2.6
2023-05-03T11:48:02.324Z,2.6
2023-05-03T11:49:02.997Z,2.6
2023-05-03T11:50:03.723Z,2.6
2023-05-03T11:51:10.179Z,2.6
2023-05-03T11:52:10.709Z,2.6
2023-05-03T11:53:11.231Z,3.1
2023-05-03T11:54:23.946Z,3.1
2023-05-03T11:55:12.399Z,3.1
2023-05-03T11:56:13.042Z,3.1
2023-05-03T11:57:13.692Z,3.1
2023-05-03T11:58:14.409Z,3.1
2023-05-03T11:59:15.118Z,3.1
2023-05-03T12:00:15.890Z,3.1
2023-05-03T12:01:16.431Z,3.1
2023-05-03T12:02:17.073Z,3.1
2023-05-03T12:03:18.125Z,3.1
2023-05-03T12:04:18.397Z,3.1
2023-05-03T12:05:19.174Z,3.1
2023-05-03T12:06:19.614Z,3.1
2023-05-03T12:07:22.396Z,3.1
2023-05-03T12:08:21.926Z,3.1
2023-05-03T12:09:22.494Z,3.1
2023-05-03T12:10:24.106Z,3.1
2023-05-03T12:11:25.402Z,3.1
2023-05-03T12:12:25.995Z,3.1
2023-05-03T12:13:30.537Z,3.6
2023-05-03T12:14:30.350Z,3.6
2023-05-03T12:15:31.081Z,3.6
2023-05-03T12:16:31.578Z,3.6
2023-05-03T12:17:32.361Z,3.6
2023-05-03T12:18:33.039Z,3.6
2023-05-03T12:19:34.534Z,3.6
2023-05-03T12:21:28.083Z,3.6
2023-05-03T12:21:35.517Z,3.6
2023-05-03T12:22:35.470Z,3.6
2023-05-03T12:23:35.905Z,3.6
2023-05-03T12:24:38.822Z,3.6
2023-05-03T12:25:39.385Z,3.6
2023-05-03T12:26:38.057Z,3.6
2023-05-03T12:27:39.931Z,3.6
2023-05-03T12:28:38.804Z,3.6
2023-05-03T12:29:41.589Z,3.6
2023-05-03T12:30:41.007Z,3.6
2023-05-03T12:31:43.692Z,3.6
2023-05-03T12:32:44.306Z,3.6
2023-05-03T12:33:43.600Z,3.6
2023-05-03T12:34:42.984Z,3.6
2023-05-03T12:35:51.443Z,3.6
2023-05-03T12:36:50.559Z,3.6
2023-05-03T12:37:50.650Z,3.6
2023-05-03T12:38:51.079Z,3.6
2023-05-03T12:39:58.635Z,3.6
2023-05-03T12:40:52.278Z,3.6
2023-05-03T12:42:06.663Z,3.6
2023-05-03T12:42:53.410Z,3.6
2023-05-03T12:43:53.969Z,3.6
2023-05-03T12:44:55.961Z,3.6
2023-05-03T12:46:16.933Z,3.6
2023-05-03T12:46:56.000Z,3.6
2023-05-03T12:47:56.619Z,3.6
2023-05-03T12:48:59.409Z,3.6
2023-05-03T12:49:59.937Z,3.6
2023-05-03T12:51:17.487Z,3.6
2023-05-03T12:52:17.766Z,3.6
2023-05-03T12:53:02.491Z,2.1
2023-05-03T12:56:02.700Z,2.1
2023-05-03T12:57:02.166Z,2.1
2023-05-03T12:58:26.617Z,2.1
2023-05-03T13:03:20.311Z,2.1
2023-05-03T13:05:22.625Z,2.1
2023-05-03T13:06:14.723Z,2.1
2023-05-03T13:07:14.414Z,2.1
2023-05-03T13:08:20.968Z,2.1
2023-05-03T13:09:20.409Z,2.1
2023-05-03T13:11:16.790Z,2.1
2023-05-03T13:12:20.347Z,2.1
2023-05-03T13:13:20.584Z,2.6
2023-05-03T13:14:25.811Z,2.6
2023-05-03T13:15:26.380Z,2.6
2023-05-03T13:16:27.130Z,2.6
2023-05-03T13:17:27.731Z,2.6
2023-05-03T13:18:28.381Z,2.6
2023-05-03T13:19:29.105Z,2.6
2023-05-03T13:20:29.816Z,2.6
2023-05-03T13:21:30.359Z,2.6
2023-05-03T13:22:30.963Z,2.6
2023-05-03T13:23:31.479Z,2.6
2023-05-03T13:24:32.039Z,2.6
2023-05-03T13:25:32.542Z,2.6
2023-05-03T13:26:33.128Z,2.6
2023-05-03T13:27:33.760Z,2.6
2023-05-03T13:28:34.526Z,2.6
2023-05-03T13:29:34.983Z,2.6
2023-05-03T13:30:35.526Z,2.6
2023-05-03T13:31:36.309Z,2.6
2023-05-03T13:32:36.841Z,2.6
2023-05-03T13:33:37.354Z,2.6
2023-05-03T13:34:37.898Z,2.6
2023-05-03T13:35:38.533Z,2.6
2023-05-03T13:36:45.278Z,2.6
2023-05-03T13:37:45.804Z,2.6
2023-05-03T13:38:46.318Z,2.6
2023-05-03T13:39:47.076Z,2.6
2023-05-03T13:40:47.651Z,2.6
2023-05-03T13:41:48.302Z,2.6
2023-05-03T13:42:48.736Z,2.6
2023-05-03T13:43:49.288Z,2.6
2023-05-03T13:44:49.799Z,2.6
2023-05-03T13:45:50.366Z,2.6
2023-05-03T13:46:50.944Z,2.6
2023-05-03T13:48:52.279Z,2.6
2023-05-03T13:49:52.826Z,2.6
2023-05-03T13:50:53.368Z,2.6
2023-05-03T13:51:53.894Z,2.6
2023-05-03T13:52:54.433Z,2.6
2023-05-03T13:53:54.943Z,2.6
2023-05-03T13:54:55.640Z,2.6
2023-05-03T13:55:56.171Z,2.6
2023-05-03T13:56:56.866Z,2.6
2023-05-03T13:57:57.612Z,2.6
2023-05-03T13:59:04.197Z,2.6
2023-05-03T14:00:05.192Z,2.6
2023-05-03T14:01:05.481Z,2.6
2023-05-03T14:02:06.053Z,2.6
2023-05-03T14:03:06.692Z,2.6
2023-05-03T14:04:07.354Z,2.6
2023-05-03T14:05:07.931Z,2.6
2023-05-03T14:06:08.496Z,2.6
2023-05-03T14:07:09.234Z,2.6
2023-05-03T14:08:09.817Z,2.6
2023-05-03T14:09:10.503Z,2.6
2023-05-03T14:10:11.548Z,2.6
2023-05-03T14:11:11.812Z,2.6
2023-05-03T14:12:12.321Z,2.6
2023-05-03T14:13:12.922Z,2.6
2023-05-03T14:14:13.477Z,2.6
2023-05-03T14:15:14.013Z,2.6
2023-05-03T14:16:16.003Z,2.6